Kingsbury, Nevada
Current Conditions -  °F | °C
As of 10:53 PM on Thursday 27 Nov 2014 (Local Time) from KTVL Reporting Station
Clear Clear  
Wind Chill: 11°   Ceiling: Unl
Heat Index: 11°   Visibility: 10mi
Dew Point: -8°   Wind: 5mph
Humidity: 26%   Direction: NA
Pressure: 30.18"   Gusts: NA
Location:  39.0164°N, 119.925°W
Report Text: KTVL 280653Z AUTO VRB04KT 10SM CLR 11/M08 A3018 RMK AO2 SLP171 T01111078
Loading
Personal Weather Stations






























Interactive Weather Map New forecast layout! Learn more

10-Day Weather Forecast

Advertisements
Track Severe Weather on mobile